createdAt,value
2022-12-22T00:00:19.575Z,38.08
2022-12-22T00:03:05.057Z,38.19
2022-12-22T00:05:50.801Z,37.52
2022-12-22T00:08:36.247Z,37.90
2022-12-22T00:11:25.657Z,38.29
2022-12-22T00:14:10.900Z,38.07
2022-12-22T00:16:56.177Z,37.87
2022-12-22T00:19:41.543Z,38.09
2022-12-22T00:22:38.900Z,37.60
2022-12-22T00:25:24.747Z,37.98
2022-12-22T00:28:10.029Z,37.60
2022-12-22T00:30:55.387Z,37.72
2022-12-22T00:33:41.304Z,37.63
2022-12-22T00:36:28.981Z,37.24
2022-12-22T00:39:14.580Z,37.53
2022-12-22T00:41:59.817Z,36.97
2022-12-22T00:44:45.070Z,37.08
2022-12-22T00:47:45.407Z,36.83
2022-12-22T00:50:31.320Z,36.76
2022-12-22T00:53:17.812Z,37.14
2022-12-22T00:56:03.167Z,36.85
2022-12-22T00:58:48.463Z,36.99
2022-12-22T01:01:33.895Z,37.15
2022-12-22T01:04:18.964Z,37.08
2022-12-22T01:07:05.479Z,36.73
2022-12-22T01:09:51.421Z,36.97
2022-12-22T01:12:40.339Z,36.90
2022-12-22T01:15:35.464Z,36.54
2022-12-22T01:18:20.807Z,36.52
2022-12-22T01:21:06.027Z,36.66
2022-12-22T01:23:51.726Z,36.56
2022-12-22T01:26:38.220Z,36.66
2022-12-22T01:29:23.328Z,36.78
2022-12-22T01:32:08.629Z,36.34
2022-12-22T01:34:53.961Z,36.39
2022-12-22T01:37:39.126Z,36.28
2022-12-22T01:40:31.536Z,36.58
2022-12-22T01:43:16.743Z,36.17
2022-12-22T01:46:02.198Z,36.20
2022-12-22T01:48:49.090Z,36.16
2022-12-22T01:51:54.719Z,36.26
2022-12-22T01:54:40.014Z,36.10
2022-12-22T01:57:25.159Z,36.16
2022-12-22T02:00:10.819Z,35.93
2022-12-22T02:02:59.283Z,36.06
2022-12-22T02:05:44.965Z,36.14
2022-12-22T02:08:43.091Z,35.89
2022-12-22T02:11:31.384Z,35.97
2022-12-22T02:14:55.513Z,35.88
2022-12-22T02:18:03.751Z,36.04
2022-12-22T02:20:58.158Z,35.96
2022-12-22T02:23:45.914Z,35.93
2022-12-22T02:26:50.927Z,35.77
2022-12-22T02:29:44.118Z,36.04
2022-12-22T02:32:29.350Z,35.72
2022-12-22T02:35:14.496Z,35.72
2022-12-22T02:38:21.016Z,35.66
2022-12-22T02:41:35.252Z,35.37
2022-12-22T02:44:26.579Z,35.65
2022-12-22T02:47:26.637Z,35.75
2022-12-22T02:50:23.625Z,35.59
2022-12-22T02:53:09.476Z,35.72
2022-12-22T02:55:55.063Z,35.46
2022-12-22T02:58:40.275Z,35.31
2022-12-22T03:01:26.161Z,35.57
2022-12-22T03:04:13.216Z,35.44
2022-12-22T03:06:58.880Z,35.51
2022-12-22T03:09:44.192Z,35.87
2022-12-22T03:12:29.467Z,35.30
2022-12-22T03:15:14.865Z,35.39
2022-12-22T03:17:59.964Z,35.13
2022-12-22T03:20:45.243Z,35.24
2022-12-22T03:23:30.671Z,35.35
2022-12-22T03:25:57.877Z,35.25
2022-12-22T03:28:26.571Z,35.19
2022-12-22T03:35:05.528Z,35.20
2022-12-22T03:37:32.109Z,35.18
2022-12-22T03:39:58.957Z,35.26
2022-12-22T03:42:43.900Z,35.29
2022-12-22T03:45:29.135Z,35.25
2022-12-22T03:47:56.248Z,35.35
2022-12-22T03:50:22.794Z,35.22
2022-12-22T03:52:49.398Z,35.39
2022-12-22T03:55:17.084Z,35.66
2022-12-22T03:57:43.663Z,35.42
2022-12-22T04:00:11.154Z,35.49
2022-12-22T04:02:40.817Z,35.19
2022-12-22T04:05:08.087Z,35.54
2022-12-22T04:07:34.674Z,35.75
2022-12-22T04:10:19.618Z,35.59
2022-12-22T04:12:54.459Z,35.73
2022-12-22T04:15:28.252Z,35.81
2022-12-22T04:17:55.433Z,35.53
2022-12-22T04:20:22.782Z,35.66
2022-12-22T04:22:49.494Z,35.64
2022-12-22T04:25:16.677Z,35.67
2022-12-22T04:27:43.348Z,35.59
2022-12-22T04:30:10.501Z,35.80
2022-12-22T04:32:37.225Z,35.56
2022-12-22T04:35:05.479Z,35.71
2022-12-22T04:37:32.141Z,35.67
2022-12-22T04:39:58.897Z,35.97
2022-12-22T04:42:25.417Z,35.87
2022-12-22T04:44:52.093Z,35.81
2022-12-22T04:47:19.010Z,35.72
2022-12-22T04:49:45.751Z,35.59
2022-12-22T04:52:12.650Z,35.67
2022-12-22T04:54:39.191Z,35.87
2022-12-22T04:57:05.791Z,35.99
2022-12-22T04:59:32.349Z,35.86
2022-12-22T05:01:58.983Z,35.78
2022-12-22T05:04:25.630Z,35.93
2022-12-22T05:06:52.279Z,36.10
2022-12-22T05:09:18.815Z,36.07
2022-12-22T05:11:45.544Z,36.04
2022-12-22T05:14:12.077Z,35.76
2022-12-22T05:16:39.247Z,36.10
2022-12-22T05:19:05.831Z,36.18
2022-12-22T05:21:32.784Z,35.97
2022-12-22T05:23:59.373Z,36.14
2022-12-22T05:26:25.963Z,36.25
2022-12-22T05:28:52.582Z,36.13
2022-12-22T05:31:21.389Z,35.91
2022-12-22T05:33:48.325Z,36.31
2022-12-22T05:36:18.484Z,36.40
2022-12-22T05:38:45.046Z,36.01
2022-12-22T05:41:11.635Z,36.28
2022-12-22T05:43:38.340Z,36.02
2022-12-22T05:46:08.501Z,36.15
2022-12-22T05:48:38.492Z,36.16
2022-12-22T05:51:05.799Z,36.38
2022-12-22T05:53:36.481Z,36.41
2022-12-22T05:56:03.151Z,36.17
2022-12-22T05:58:29.680Z,36.25
2022-12-22T06:01:00.815Z,36.20
2022-12-22T06:03:28.553Z,36.35
2022-12-22T06:05:55.430Z,36.43
2022-12-22T06:08:22.234Z,36.54
2022-12-22T06:10:48.815Z,36.39
2022-12-22T06:13:15.390Z,36.58
2022-12-22T06:15:42.357Z,36.59
2022-12-22T06:18:08.988Z,36.17
2022-12-22T06:20:35.587Z,36.59
2022-12-22T06:23:02.388Z,36.30
2022-12-22T06:25:29.040Z,36.39
2022-12-22T06:27:55.609Z,36.83
2022-12-22T06:30:27.372Z,36.67
2022-12-22T06:32:57.858Z,36.59
2022-12-22T06:35:24.839Z,36.08
2022-12-22T06:37:51.501Z,36.59
2022-12-22T06:40:18.113Z,36.38
2022-12-22T06:43:08.398Z,36.79
2022-12-22T06:45:37.771Z,36.56
2022-12-22T06:48:04.813Z,36.92
2022-12-22T06:50:31.427Z,36.89
2022-12-22T06:52:58.165Z,36.67
2022-12-22T06:55:24.770Z,37.18
2022-12-22T06:57:51.304Z,37.11
2022-12-22T07:00:19.853Z,37.00
2022-12-22T07:02:46.712Z,37.26
2022-12-22T07:05:13.519Z,36.81
2022-12-22T07:07:40.061Z,37.30
2022-12-22T07:10:07.568Z,37.31
2022-12-22T07:12:34.252Z,36.97
2022-12-22T07:15:00.968Z,37.13
2022-12-22T07:17:27.554Z,37.30
2022-12-22T07:19:54.179Z,36.96
2022-12-22T07:22:24.226Z,37.47
2022-12-22T07:24:56.078Z,37.01
2022-12-22T07:27:22.879Z,37.22
2022-12-22T07:29:49.510Z,37.11
2022-12-22T07:32:16.082Z,36.81
2022-12-22T07:34:42.639Z,36.95
2022-12-22T07:37:09.208Z,37.28
2022-12-22T07:39:35.798Z,37.33
2022-12-22T07:42:21.259Z,37.34
2022-12-22T07:44:48.143Z,37.44
2022-12-22T07:47:14.656Z,37.19
2022-12-22T07:49:59.995Z,37.13
2022-12-22T07:52:26.863Z,37.40
2022-12-22T07:54:53.411Z,37.08
2022-12-22T07:57:20.048Z,37.12
2022-12-22T07:59:46.577Z,36.73
2022-12-22T08:02:13.289Z,36.24
2022-12-22T08:04:40.196Z,36.11
2022-12-22T08:07:06.812Z,35.71
2022-12-22T08:09:33.323Z,35.61
2022-12-22T08:11:59.988Z,35.54
2022-12-22T08:14:26.514Z,36.17
2022-12-22T08:16:54.113Z,35.96
2022-12-22T08:19:20.757Z,36.04
2022-12-22T08:21:52.971Z,36.65
2022-12-22T08:24:20.422Z,36.69
2022-12-22T08:26:49.082Z,36.51
2022-12-22T08:29:28.450Z,36.29
2022-12-22T08:31:55.108Z,36.63
2022-12-22T08:34:24.284Z,36.44
2022-12-22T08:36:52.516Z,36.26
2022-12-22T08:39:20.711Z,36.37
2022-12-22T08:41:50.088Z,36.40
2022-12-22T08:44:18.506Z,36.46
2022-12-22T08:46:45.647Z,36.48
2022-12-22T08:49:12.528Z,36.75
2022-12-22T08:51:39.121Z,36.67
2022-12-22T08:54:06.643Z,36.82
2022-12-22T08:56:34.730Z,36.80
2022-12-22T08:59:05.063Z,36.46
2022-12-22T09:01:36.033Z,36.97
2022-12-22T09:04:04.025Z,36.53
2022-12-22T09:06:36.561Z,36.84
2022-12-22T09:09:10.186Z,36.58
2022-12-22T09:11:37.012Z,36.56
2022-12-22T09:14:04.684Z,36.64
2022-12-22T09:16:32.951Z,36.63
2022-12-22T09:19:00.275Z,36.57
2022-12-22T09:21:29.448Z,36.96
2022-12-22T09:23:56.897Z,36.55
2022-12-22T09:26:25.635Z,37.07
2022-12-22T09:28:53.138Z,36.63
2022-12-22T09:31:21.849Z,37.13
2022-12-22T09:33:48.865Z,36.64
2022-12-22T09:36:24.422Z,36.88
2022-12-22T09:38:51.471Z,37.07
2022-12-22T09:41:34.722Z,36.90
2022-12-22T09:44:04.519Z,37.14
2022-12-22T09:46:36.645Z,36.91
2022-12-22T09:49:05.902Z,37.18
2022-12-22T09:51:34.517Z,37.15
2022-12-22T09:54:01.845Z,36.99
2022-12-22T09:56:29.497Z,36.84
2022-12-22T09:58:56.729Z,36.99
2022-12-22T10:01:53.139Z,36.85
2022-12-22T10:04:28.688Z,37.27
2022-12-22T10:07:18.698Z,37.22
2022-12-22T10:09:50.399Z,36.87
2022-12-22T10:12:21.339Z,36.92
2022-12-22T10:14:49.637Z,36.86
2022-12-22T10:17:23.948Z,37.20
2022-12-22T10:19:54.314Z,36.96
2022-12-22T10:22:35.871Z,36.82
2022-12-22T10:25:04.754Z,36.94
2022-12-22T10:27:34.259Z,37.27
2022-12-22T10:30:25.166Z,36.89
2022-12-22T10:33:09.603Z,36.84
2022-12-22T10:35:57.252Z,37.32
2022-12-22T10:38:27.662Z,37.08
2022-12-22T10:41:02.136Z,36.96
2022-12-22T10:43:33.134Z,37.31
2022-12-22T10:46:03.191Z,37.33
2022-12-22T10:48:38.228Z,37.06
2022-12-22T10:51:07.780Z,37.31
2022-12-22T10:53:54.203Z,37.28
2022-12-22T10:56:32.073Z,37.52
2022-12-22T10:59:01.378Z,37.21
2022-12-22T11:01:33.734Z,36.89
2022-12-22T11:04:23.944Z,36.88
2022-12-22T11:06:51.435Z,37.21
2022-12-22T11:09:35.849Z,37.33
2022-12-22T11:12:36.897Z,37.42
2022-12-22T11:15:28.617Z,37.22
2022-12-22T11:18:16.928Z,37.45
2022-12-22T11:20:49.682Z,37.38
2022-12-22T11:23:39.315Z,37.34
2022-12-22T11:26:08.843Z,37.39
2022-12-22T11:29:13.376Z,37.48
2022-12-22T11:32:12.709Z,37.19
2022-12-22T11:34:48.318Z,36.90
2022-12-22T11:37:22.265Z,36.73
2022-12-22T11:39:59.208Z,36.86
2022-12-22T11:42:33.559Z,37.20
2022-12-22T11:45:19.073Z,36.56
2022-12-22T11:48:01.435Z,36.80
2022-12-22T11:51:00.806Z,36.77
2022-12-22T11:53:32.902Z,36.46
2022-12-22T11:56:21.689Z,36.35
2022-12-22T11:59:01.700Z,36.37
2022-12-22T12:01:48.088Z,36.57
2022-12-22T12:05:00.759Z,36.25
2022-12-22T12:07:40.991Z,36.22
2022-12-22T12:10:28.026Z,36.13
2022-12-22T12:13:27.378Z,35.95
2022-12-22T12:16:20.147Z,35.93
2022-12-22T12:19:07.928Z,35.89
2022-12-22T12:21:55.347Z,35.92
2022-12-22T12:24:44.512Z,35.65
2022-12-22T12:27:39.097Z,35.74
2022-12-22T12:33:09.069Z,35.69
2022-12-22T12:36:07.633Z,35.46
2022-12-22T12:41:57.581Z,35.21
2022-12-22T12:44:27.790Z,35.46
2022-12-22T12:47:14.746Z,35.30
2022-12-22T12:49:51.997Z,35.01
2022-12-22T12:52:38.807Z,34.98
2022-12-22T12:55:40.421Z,34.99
2022-12-22T12:58:11.593Z,35.09
2022-12-22T13:00:45.058Z,35.27
2022-12-22T13:03:53.018Z,34.97
2022-12-22T13:06:32.147Z,34.95
2022-12-22T13:09:22.037Z,35.01
2022-12-22T13:12:11.925Z,34.63
2022-12-22T13:14:59.017Z,34.67
2022-12-22T13:17:49.444Z,34.48
2022-12-22T13:20:21.956Z,34.42
2022-12-22T13:22:52.556Z,34.89
2022-12-22T13:25:19.674Z,34.58
2022-12-22T13:27:46.555Z,34.65
2022-12-22T13:30:19.615Z,34.57
2022-12-22T13:32:48.692Z,34.57
2022-12-22T13:35:32.509Z,34.30
2022-12-22T13:38:00.477Z,34.38
2022-12-22T13:40:46.411Z,34.23
2022-12-22T13:43:15.528Z,34.28
2022-12-22T13:45:44.560Z,34.12
2022-12-22T13:48:17.970Z,34.20
2022-12-22T13:50:52.175Z,34.12
2022-12-22T13:53:58.585Z,33.88
2022-12-22T13:56:16.338Z,34.14
2022-12-22T13:58:45.386Z,33.89
2022-12-22T14:01:12.373Z,34.01
2022-12-22T14:03:59.640Z,33.86
2022-12-22T14:06:36.053Z,33.99
2022-12-22T14:09:12.615Z,33.83
2022-12-22T14:11:42.873Z,33.99
2022-12-22T14:14:18.123Z,34.11
2022-12-22T14:16:47.557Z,34.05
2022-12-22T14:19:17.959Z,34.17
2022-12-22T14:21:47.865Z,33.98
2022-12-22T14:24:21.989Z,34.17
2022-12-22T14:26:49.012Z,34.19
2022-12-22T14:29:18.469Z,34.02
2022-12-22T14:32:02.747Z,33.92
2022-12-22T14:34:33.753Z,34.25
2022-12-22T14:37:01.707Z,34.18
2022-12-22T14:39:33.459Z,34.31
2022-12-22T14:42:02.304Z,34.39
2022-12-22T14:44:32.230Z,34.16
2022-12-22T14:47:08.221Z,34.37
2022-12-22T14:49:35.812Z,34.25
2022-12-22T14:52:07.707Z,34.27
2022-12-22T14:54:36.461Z,34.23
2022-12-22T14:57:15.761Z,34.36
2022-12-22T14:59:58.139Z,34.32
2022-12-22T15:02:35.009Z,34.39
2022-12-22T15:05:24.204Z,34.26
2022-12-22T15:08:10.053Z,34.20
2022-12-22T15:10:40.170Z,34.64
2022-12-22T15:13:12.524Z,34.24
2022-12-22T15:15:39.267Z,34.44
2022-12-22T15:18:06.651Z,34.41
2022-12-22T15:20:38.956Z,34.24
2022-12-22T15:23:11.788Z,34.39
2022-12-22T15:25:38.399Z,34.39
2022-12-22T15:28:05.220Z,34.38
2022-12-22T15:30:32.151Z,34.48
2022-12-22T15:32:58.842Z,34.32
2022-12-22T15:35:33.370Z,34.58
2022-12-22T15:38:00.931Z,34.30
2022-12-22T15:40:28.231Z,34.45
2022-12-22T15:42:54.933Z,34.13
2022-12-22T15:45:22.394Z,34.53
2022-12-22T15:47:51.127Z,34.11
2022-12-22T15:50:26.071Z,34.37
2022-12-22T15:52:56.609Z,34.73
2022-12-22T15:55:24.570Z,34.66
2022-12-22T15:57:54.127Z,34.81
2022-12-22T16:00:21.612Z,34.86
2022-12-22T16:02:48.519Z,35.18
2022-12-22T16:05:16.062Z,35.01
2022-12-22T16:07:43.785Z,35.05
2022-12-22T16:10:27.548Z,35.27
2022-12-22T16:13:00.132Z,35.17
2022-12-22T16:15:32.919Z,35.00
2022-12-22T16:18:00.745Z,35.01
2022-12-22T16:20:34.353Z,35.09
2022-12-22T16:23:06.267Z,35.08
2022-12-22T16:25:34.720Z,34.79
2022-12-22T16:28:02.064Z,34.93
2022-12-22T16:30:30.942Z,34.99
2022-12-22T16:32:57.840Z,35.21
2022-12-22T16:35:28.694Z,35.31
2022-12-22T16:37:58.853Z,35.37
2022-12-22T16:40:26.268Z,35.25
2022-12-22T16:46:00.214Z,35.43
2022-12-22T16:48:40.704Z,35.37
2022-12-22T16:51:07.459Z,35.56
2022-12-22T16:53:34.002Z,35.59
2022-12-22T16:56:00.695Z,35.58
2022-12-22T16:58:27.231Z,35.65
2022-12-22T17:00:54.020Z,35.83
2022-12-22T17:03:27.432Z,35.90
2022-12-22T17:06:01.073Z,35.81
2022-12-22T17:08:30.301Z,35.91
2022-12-22T17:10:58.311Z,36.15
2022-12-22T17:13:25.759Z,35.80
2022-12-22T17:15:52.515Z,35.90
2022-12-22T17:18:21.249Z,36.09
2022-12-22T17:20:50.720Z,36.23
2022-12-22T17:23:39.737Z,36.13
2022-12-22T17:26:09.425Z,35.87
2022-12-22T17:28:38.537Z,35.91
2022-12-22T17:31:05.813Z,36.21
2022-12-22T17:33:32.472Z,35.95
2022-12-22T17:36:00.202Z,36.18
2022-12-22T17:38:27.367Z,36.50
2022-12-22T17:40:54.480Z,36.25
2022-12-22T17:43:21.686Z,36.01
2022-12-22T17:45:48.775Z,36.46
2022-12-22T17:48:16.030Z,36.52
2022-12-22T17:50:44.365Z,36.42
2022-12-22T17:53:14.847Z,36.47
2022-12-22T17:56:07.375Z,36.31
2022-12-22T17:58:29.275Z,36.58
2022-12-22T18:00:55.795Z,36.34
2022-12-22T18:03:23.063Z,36.38
2022-12-22T18:05:49.800Z,36.78
2022-12-22T18:08:19.230Z,36.47
2022-12-22T18:10:46.304Z,36.37
2022-12-22T18:13:24.279Z,36.49
2022-12-22T18:15:50.971Z,36.64
2022-12-22T18:18:18.119Z,36.43
2022-12-22T18:20:46.831Z,36.63
2022-12-22T18:23:33.794Z,36.83
2022-12-22T18:26:00.801Z,36.33
2022-12-22T18:28:27.493Z,36.82
2022-12-22T18:30:53.993Z,36.65
2022-12-22T18:33:20.772Z,36.22
2022-12-22T18:35:47.340Z,36.74
2022-12-22T18:38:25.002Z,36.48
2022-12-22T18:40:52.019Z,36.39
2022-12-22T18:43:18.571Z,36.74
2022-12-22T18:45:45.188Z,36.60
2022-12-22T18:48:11.748Z,36.59
2022-12-22T18:50:39.555Z,36.46
2022-12-22T18:53:30.203Z,36.93
2022-12-22T18:55:57.635Z,36.34
2022-12-22T18:58:24.624Z,36.51
2022-12-22T19:00:53.727Z,36.25
2022-12-22T19:03:24.226Z,36.81
2022-12-22T19:05:51.141Z,36.39
2022-12-22T19:08:20.315Z,36.55
2022-12-22T19:10:49.553Z,36.72
2022-12-22T19:13:24.979Z,36.48
2022-12-22T19:15:52.054Z,36.79
2022-12-22T19:18:26.248Z,36.72
2022-12-22T19:20:55.317Z,36.39
2022-12-22T19:23:23.192Z,36.55
2022-12-22T19:25:52.824Z,36.57
2022-12-22T19:28:30.489Z,36.49
2022-12-22T19:31:00.311Z,36.80
2022-12-22T19:33:41.554Z,36.85
2022-12-22T19:36:14.921Z,36.55
2022-12-22T19:38:46.007Z,36.90
2022-12-22T19:41:35.070Z,36.65
2022-12-22T19:44:02.171Z,36.75
2022-12-22T19:46:32.495Z,36.71
2022-12-22T19:48:59.517Z,36.80
2022-12-22T19:51:26.135Z,36.60
2022-12-22T19:53:54.250Z,36.77
2022-12-22T19:56:26.867Z,36.94
2022-12-22T19:58:54.844Z,36.73
2022-12-22T20:01:21.480Z,36.85
2022-12-22T20:03:48.149Z,36.52
2022-12-22T20:06:15.342Z,36.54
2022-12-22T20:08:41.958Z,37.00
2022-12-22T20:11:19.001Z,36.60
2022-12-22T20:13:46.524Z,36.62
2022-12-22T20:16:15.072Z,36.72
2022-12-22T20:18:41.848Z,36.81
2022-12-22T20:21:13.540Z,36.69
2022-12-22T20:23:40.441Z,36.95
2022-12-22T20:26:15.325Z,36.95
2022-12-22T20:28:41.817Z,36.52
2022-12-22T20:31:12.411Z,36.51
2022-12-22T20:33:39.083Z,36.54
2022-12-22T20:36:27.631Z,36.51
2022-12-22T20:38:57.335Z,36.79
2022-12-22T20:41:24.856Z,36.56
2022-12-22T20:43:53.384Z,36.55
2022-12-22T20:46:23.618Z,36.84
2022-12-22T20:48:53.753Z,36.96
2022-12-22T20:51:21.941Z,36.80
2022-12-22T20:53:49.244Z,36.52
2022-12-22T20:56:26.698Z,36.93
2022-12-22T20:58:54.141Z,36.66
2022-12-22T21:01:21.296Z,36.68
2022-12-22T21:03:48.016Z,36.97
2022-12-22T21:06:34.511Z,36.81
2022-12-22T21:09:01.500Z,36.88
2022-12-22T21:11:29.358Z,36.80
2022-12-22T21:13:57.007Z,36.90
2022-12-22T21:16:26.707Z,36.63
2022-12-22T21:18:54.132Z,36.64
2022-12-22T21:21:20.748Z,37.00
2022-12-22T21:23:47.454Z,37.04
2022-12-22T21:26:25.150Z,36.69
2022-12-22T21:28:52.294Z,37.12
2022-12-22T21:31:18.963Z,37.07
2022-12-22T21:33:47.212Z,36.68
2022-12-22T21:36:18.917Z,36.55
2022-12-22T21:38:47.309Z,36.54
2022-12-22T21:41:14.300Z,36.51
2022-12-22T21:43:40.875Z,36.89
2022-12-22T21:46:11.167Z,36.73
2022-12-22T21:48:37.870Z,36.56
2022-12-22T21:51:06.156Z,36.56
2022-12-22T21:53:32.787Z,36.76
2022-12-22T21:55:59.406Z,37.19
2022-12-22T21:58:25.993Z,36.61
2022-12-22T22:00:52.491Z,37.06
2022-12-22T22:03:19.175Z,36.67
2022-12-22T22:05:47.860Z,36.69
2022-12-22T22:08:14.525Z,37.14
2022-12-22T22:10:43.457Z,37.15
2022-12-22T22:13:16.825Z,37.23
2022-12-22T22:15:43.705Z,37.18
2022-12-22T22:18:18.794Z,37.02
2022-12-22T22:20:46.982Z,36.99
2022-12-22T22:23:14.648Z,36.62
2022-12-22T22:25:41.637Z,37.05
2022-12-22T22:28:11.294Z,37.06
2022-12-22T22:30:39.990Z,37.08
2022-12-22T22:33:06.523Z,37.16
2022-12-22T22:35:33.152Z,37.27
2022-12-22T22:37:59.719Z,36.85
2022-12-22T22:40:27.153Z,36.79
2022-12-22T22:42:53.788Z,37.11
2022-12-22T22:45:23.218Z,36.87
2022-12-22T22:47:53.397Z,37.27
2022-12-22T22:50:20.945Z,36.78
2022-12-22T22:52:47.749Z,37.05
2022-12-22T22:55:14.928Z,36.96
2022-12-22T22:57:42.398Z,37.31
2022-12-22T23:00:13.613Z,36.83
2022-12-22T23:02:40.328Z,37.05
2022-12-22T23:05:07.482Z,37.12
2022-12-22T23:07:35.079Z,37.28
2022-12-22T23:10:01.748Z,36.99
2022-12-22T23:12:28.499Z,37.35
2022-12-22T23:14:55.271Z,37.15
2022-12-22T23:17:21.931Z,37.35
2022-12-22T23:19:48.439Z,36.99
2022-12-22T23:22:16.551Z,36.92
2022-12-22T23:24:43.111Z,36.99
2022-12-22T23:27:09.732Z,36.99
2022-12-22T23:29:36.803Z,37.34
2022-12-22T23:32:04.442Z,37.47
2022-12-22T23:34:31.054Z,36.95
2022-12-22T23:36:57.704Z,37.09
2022-12-22T23:39:24.590Z,36.95
2022-12-22T23:41:51.190Z,37.34
2022-12-22T23:44:17.876Z,36.96
2022-12-22T23:46:44.952Z,36.96
2022-12-22T23:49:12.258Z,37.46
2022-12-22T23:51:38.808Z,37.37
2022-12-22T23:54:05.795Z,37.30
2022-12-22T23:56:32.674Z,37.02
2022-12-22T23:58:59.337Z,37.21
